Create Tblcommutelog Verified Points Advance Search
| # | Trip ID | Id Commuter | Trip Date | Trip Num | Current Lat | Current Lng | Delta Distance | Current Time | Activity | Activity Confidence | Current Speed | |
|---|---|---|---|---|---|---|---|---|---|---|---|---|
| 69001 | 250610_780856_6461772_0820 | 780856 | (not set) | (not set) | 38.952451367059 | -77.112630820107 | 0.5303 | 2025-06-10 12:22:47.37 | on_bicycle | 100 | 2.8968143982405 | |
| 69002 | 250610_764454_16507126_0704 | 764454 | (not set) | (not set) | 38.902362703473 | -77.04723358691 | 36.3069 | 2025-06-10 12:22:47.394 | on_foot | 100 | 0.51409514783588 | |
| 69003 | 250610_700992_16414139_0800 | 700992 | (not set) | (not set) | 39.078498125184 | -77.169534906192 | 10.5749 | 2025-06-10 12:22:48.124 | in_vehicle | 100 | 8.7932622242885 | |
| 69004 | 250610_763454_16652657_0804 | 763454 | (not set) | (not set) | 39.062474858236 | -77.120972891783 | 1.7085 | 2025-06-10 12:22:48.253 | on_foot | 100 | 0.20563805913435 | |
| 69005 | 250610_784617_16489083_0810 | 784617 | (not set) | (not set) | 38.796650380684 | -77.147035300376 | 7.0917 | 2025-06-10 12:22:48.32 | in_vehicle | 100 | 13.035664792082 | |
| 69006 | 250610_781042_16483865_0822 | 781042 | (not set) | (not set) | 38.909706519666 | -77.043916603338 | 0 | 2025-06-10 12:22:48.452 | unknown | 100 | -0.44703925898772 | |
| 69007 | 250610_781042_16483865_0822 | 781042 | (not set) | (not set) | 38.909706519666 | -77.043916603338 | 0 | 2025-06-10 12:22:48.548 | unknown | 100 | -0.44703925898772 | |
| 69008 | 250610_752246_16512995_0759 | 752246 | (not set) | (not set) | 38.896980775369 | -76.960059038017 | 6.6335 | 2025-06-10 12:22:49.237 | in_vehicle | 100 | 5.717632122453 | |
| 69009 | 250610_780216_6461772_0819 | 780216 | (not set) | (not set) | 38.8938396 | -77.0928401 | 0.0962 | 2025-06-10 12:22:49.689 | still | 100 | 0.22351962949386 | |
| 69010 | 250610_770164_16511074_0801 | 770164 | (not set) | (not set) | 38.863337097042 | -77.118080854822 | 2.4054 | 2025-06-10 12:22:49.82 | on_foot | 100 | 1.9446207765966 | |
| 69011 | 250610_781890_16477994_0803 | 781890 | (not set) | (not set) | 39.113695831308 | -77.53995763525 | 2.6763 | 2025-06-10 12:22:50.169 | in_vehicle | 100 | 5.0202508784321 | |
| 69012 | 250610_669170_16500693_0705 | 669170 | (not set) | (not set) | 38.959038849646 | -77.005143683754 | 44.964 | 2025-06-10 12:22:50.18 | in_vehicle | 100 | 11.30115246721 | |
| 69013 | 250610_772683_16510502_0817 | 772683 | (not set) | (not set) | 38.9496814 | -77.0587309 | 0.8713 | 2025-06-10 12:22:50.229 | on_bicycle | 100 | 4.8369647822472 | |
| 69014 | 250610_780947_6461772_0815 | 780947 | (not set) | (not set) | 38.89253837279 | -76.838026600173 | 0 | 2025-06-10 12:22:50.407 | on_foot | 100 | 0.10728942215705 | |
| 69015 | 250610_780947_6461772_0815 | 780947 | (not set) | (not set) | 38.89253837279 | -76.838026600173 | 0.1788 | 2025-06-10 12:22:50.415 | on_foot | 100 | 0.10728942215705 | |
| 69016 | 250610_783934_16480104_0724 | 783934 | (not set) | (not set) | 38.899584921338 | -77.04567725168 | 29.191 | 2025-06-10 12:23:03.339 | in_vehicle | 100 | 2.0563805913435 | |
| 69017 | 250610_780724_16421763_0807 | 780724 | (not set) | (not set) | 38.945684441826 | -77.11617837411 | 2.9813 | 2025-06-10 12:23:04.194 | on_bicycle | 100 | 3.4734950423346 | |
| 69018 | 250610_772683_16510502_0817 | 772683 | (not set) | (not set) | 38.9496721 | -77.0569655 | 0.9665 | 2025-06-10 12:23:04.311 | on_bicycle | 100 | 4.5598004416748 | |
| 69019 | 250610_770164_16511074_0801 | 770164 | (not set) | (not set) | 38.864157976116 | -77.118697094784 | 2.4711 | 2025-06-10 12:23:04.489 | on_foot | 100 | 2.9817518574481 | |
| 69020 | 250610_752246_16512995_0759 | 752246 | (not set) | (not set) | 38.89719455131 | -76.962441004546 | 6.7628 | 2025-06-10 12:23:05.161 | in_vehicle | 100 | 5.5566979892174 |